Time;durP1;ratioP1;P1;durP2;ratioP2;P2;SDS_P1;SDS_P2;PMS_P1;PMS_P2;Temp;Humidity;BMP_temperature;BMP_pressure;BME280_temperature;BME280_humidity;BME280_pressure;Samples;Min_cycle;Max_cycle;Signal;HPM_P1;HPM_P2
2022/10/31 00:01:40;;;;;;;8.77;6.70;;;;;;;12.53;100.00;99585.03;4969238;28;20200;-80
2022/10/31 00:04:09;;;;;;;7.63;6.33;;;;;;;12.56;100.00;99586.66;4973772;28;20326;-81
2022/10/31 00:06:38;;;;;;;6.30;5.50;;;;;;;12.25;100.00;99583.28;4967189;28;20247;-80
2022/10/31 00:09:06;;;;;;;10.10;6.87;;;;;;;12.28;100.00;99592.88;4971265;28;20242;-80
2022/10/31 00:11:35;;;;;;;6.47;5.53;;;;;;;12.42;100.00;99592.00;4972511;28;20199;-80
2022/10/31 00:14:05;;;;;;;11.80;6.90;;;;;;;12.49;100.00;99598.63;5014406;28;20225;-80
2022/10/31 00:16:33;;;;;;;9.00;6.73;;;;;;;12.44;100.00;99601.56;5072463;28;20205;-80
2022/10/31 00:19:04;;;;;;;9.93;7.23;;;;;;;12.38;100.00;99601.13;5071998;28;20203;-80
2022/10/31 00:21:33;;;;;;;11.83;7.37;;;;;;;12.33;100.00;99610.22;5065915;28;20710;-80
2022/10/31 00:24:03;;;;;;;17.50;8.13;;;;;;;12.15;100.00;99619.34;5072690;28;20244;-80
2022/10/31 00:26:32;;;;;;;9.13;7.20;;;;;;;12.23;100.00;99617.06;5073538;28;20250;-80
2022/10/31 00:29:01;;;;;;;10.60;7.83;;;;;;;12.18;100.00;99619.19;5066905;28;20204;-79
2022/10/31 00:31:31;;;;;;;11.10;7.50;;;;;;;12.21;100.00;99621.63;5048249;28;20193;-80
2022/10/31 00:33:59;;;;;;;13.33;8.33;;;;;;;12.24;100.00;99623.22;4986576;28;20207;-80
2022/10/31 00:36:28;;;;;;;12.00;7.83;;;;;;;12.30;100.00;99628.16;4988484;28;20254;-80
2022/10/31 00:38:57;;;;;;;10.10;7.60;;;;;;;12.30;100.00;99634.34;4984107;28;20207;-80
2022/10/31 00:41:25;;;;;;;9.37;7.13;;;;;;;12.35;100.00;99642.00;4988453;28;20385;-80
2022/10/31 00:43:54;;;;;;;13.53;7.87;;;;;;;12.36;100.00;99635.75;4984858;28;20187;-80
2022/10/31 00:46:23;;;;;;;14.30;8.23;;;;;;;12.42;100.00;99638.00;4986749;28;20206;-80
2022/10/31 00:48:53;;;;;;;11.37;7.63;;;;;;;12.38;100.00;99636.50;4993326;28;20194;-80
2022/10/31 00:51:21;;;;;;;10.47;8.00;;;;;;;12.36;100.00;99632.25;5030223;28;20255;-80
2022/10/31 00:53:51;;;;;;;13.00;7.80;;;;;;;12.31;100.00;99629.88;5069102;28;20189;-80
2022/10/31 00:56:19;;;;;;;11.03;7.90;;;;;;;12.29;100.00;99637.94;5073030;28;20196;-80
2022/10/31 00:58:48;;;;;;;12.13;7.60;;;;;;;12.21;100.00;99644.69;5065054;28;20278;-80
2022/10/31 01:01:17;;;;;;;10.90;8.00;;;;;;;12.05;100.00;99644.78;5068887;28;20198;-80
2022/10/31 01:03:45;;;;;;;14.70;8.37;;;;;;;12.07;100.00;99650.03;5071685;28;20196;-80
2022/10/31 01:06:15;;;;;;;16.13;9.10;;;;;;;12.01;100.00;99641.47;5072900;28;20193;-80
2022/10/31 01:08:44;;;;;;;19.33;8.50;;;;;;;11.83;100.00;99644.41;5069214;28;20204;-80
2022/10/31 01:11:14;;;;;;;13.17;7.87;;;;;;;11.84;100.00;99646.13;5070741;28;20208;-80
2022/10/31 01:13:43;;;;;;;14.17;7.77;;;;;;;11.87;100.00;99641.50;5073239;28;20226;-81
2022/10/31 01:16:14;;;;;;;13.67;8.70;;;;;;;11.90;100.00;99648.41;5073899;28;20250;-80
2022/10/31 01:18:44;;;;;;;19.60;9.17;;;;;;;11.87;100.00;99635.28;5030792;28;20214;-81
2022/10/31 01:21:14;;;;;;;11.77;8.30;;;;;;;12.04;100.00;99632.44;5026070;28;20270;-81
2022/10/31 01:23:46;;;;;;;14.03;8.17;;;;;;;12.00;100.00;99645.09;5035748;28;20213;-80
2022/10/31 01:26:17;;;;;;;12.57;7.33;;;;;;;11.90;100.00;99635.13;5037247;28;20236;-80
2022/10/31 01:28:47;;;;;;;12.83;7.13;;;;;;;11.76;100.00;99633.28;5036195;28;20752;-81
2022/10/31 01:31:17;;;;;;;10.30;7.00;;;;;;;11.70;100.00;99620.41;5032938;28;20190;-80
2022/10/31 01:33:47;;;;;;;13.13;7.03;;;;;;;11.72;100.00;99622.00;5031201;28;20198;-81
2022/10/31 01:36:19;;;;;;;12.33;7.17;;;;;;;11.74;100.00;99614.78;5036590;28;20632;-80
2022/10/31 01:38:50;;;;;;;9.53;7.03;;;;;;;11.85;100.00;99624.78;5070349;28;20227;-80
2022/10/31 01:41:22;;;;;;;17.10;7.03;;;;;;;11.86;100.00;99620.31;5072062;28;20211;-80
2022/10/31 01:43:53;;;;;;;10.57;7.10;;;;;;;11.87;100.00;99614.06;5068449;28;20325;-80
2022/10/31 01:46:26;;;;;;;11.63;6.87;;;;;;;11.86;100.00;99615.00;5074032;28;20223;-80
2022/10/31 01:48:56;;;;;;;9.70;6.17;;;;;;;11.82;100.00;99611.72;5072981;28;20203;-80
2022/10/31 01:51:29;;;;;;;10.00;6.37;;;;;;;11.80;100.00;99610.09;5069919;28;20227;-80
2022/10/31 01:54:02;;;;;;;7.80;5.90;;;;;;;11.71;100.00;99612.34;5069192;28;20204;-80
2022/10/31 01:56:32;;;;;;;9.00;6.07;;;;;;;11.66;100.00;99616.22;5074045;28;20188;-80
2022/10/31 01:59:05;;;;;;;13.83;7.60;;;;;;;11.72;100.00;99615.84;5076540;28;20679;-80
2022/10/31 02:01:34;;;;;;;18.33;7.10;;;;;;;11.71;100.00;99611.47;5074328;28;20200;-81
2022/10/31 02:04:05;;;;;;;11.73;7.20;;;;;;;11.76;100.00;99612.88;5072298;28;20193;-81
2022/10/31 02:06:38;;;;;;;13.90;6.83;;;;;;;11.74;100.00;99616.59;5071389;28;20258;-80
2022/10/31 02:09:09;;;;;;;12.40;7.40;;;;;;;11.75;100.00;99613.00;5040640;28;20217;-80
2022/10/31 02:11:37;;;;;;;15.03;8.47;;;;;;;11.66;100.00;99608.25;5076482;28;20200;-80
2022/10/31 02:14:06;;;;;;;10.97;7.10;;;;;;;11.68;100.00;99615.19;5010401;28;20676;-81
2022/10/31 02:16:34;;;;;;;12.47;8.43;;;;;;;11.65;100.00;99619.81;4937037;29;20280;-81
2022/10/31 02:19:05;;;;;;;11.53;8.10;;;;;;;11.74;100.00;99608.63;4935488;29;20232;-81
2022/10/31 02:21:43;;;;;;;15.60;8.37;;;;;;;11.84;100.00;99612.47;4932320;29;20357;-81
2022/10/31 02:24:56;;;;;;;11.43;7.43;;;;;;;11.72;100.00;99611.38;4931555;29;20300;-81
2022/10/31 02:27:51;;;;;;;14.17;8.90;;;;;;;11.55;100.00;99626.63;4915944;29;20202;-81
2022/10/31 02:30:23;;;;;;;14.03;8.03;;;;;;;11.51;100.00;99611.84;4932067;29;20208;-81
2022/10/31 02:33:08;;;;;;;10.60;7.47;;;;;;;11.53;100.00;99613.47;4938820;28;20205;-81
2022/10/31 02:35:46;;;;;;;12.57;7.70;;;;;;;11.47;100.00;99624.44;4998009;28;20237;-81
2022/10/31 02:38:26;;;;;;;12.00;7.67;;;;;;;11.39;100.00;99609.00;4955311;28;20260;-80
2022/10/31 02:41:03;;;;;;;11.70;7.57;;;;;;;11.29;100.00;99618.44;5007336;28;20282;-80
2022/10/31 02:43:40;;;;;;;16.37;9.43;;;;;;;11.40;100.00;99613.34;5006477;28;20194;-82
2022/10/31 02:46:16;;;;;;;28.37;9.80;;;;;;;11.50;100.00;99618.97;5007767;28;20650;-81
2022/10/31 02:48:48;;;;;;;14.47;9.37;;;;;;;11.37;100.00;99616.16;5009556;28;20186;-81
2022/10/31 02:51:19;;;;;;;14.03;8.00;;;;;;;11.51;100.00;99609.19;5007797;28;20226;-80
2022/10/31 02:53:48;;;;;;;12.47;7.80;;;;;;;11.47;100.00;99622.63;5008700;28;20326;-81
2022/10/31 02:56:18;;;;;;;27.43;9.07;;;;;;;11.29;100.00;99623.75;5033004;28;20639;-81
2022/10/31 02:58:52;;;;;;;26.67;9.37;;;;;;;11.38;100.00;99624.97;5072273;28;20299;-80
2022/10/31 03:01:56;;;;;;;20.23;8.97;;;;;;;11.06;100.00;99625.09;5067122;28;20208;-80
2022/10/31 03:04:43;;;;;;;12.60;8.00;;;;;;;11.09;100.00;99621.41;5069858;28;20667;-81
2022/10/31 03:07:21;;;;;;;15.73;7.87;;;;;;;11.06;100.00;99614.47;5071411;28;20193;-80
2022/10/31 03:10:03;;;;;;;23.30;9.37;;;;;;;10.94;100.00;99617.00;5072594;28;20196;-80
2022/10/31 03:12:40;;;;;;;20.13;9.10;;;;;;;10.89;100.00;99617.25;5068773;28;20232;-80
2022/10/31 03:15:21;;;;;;;19.27;9.20;;;;;;;10.91;100.00;99615.41;5073336;28;20669;-80
2022/10/31 03:17:59;;;;;;;19.50;8.77;;;;;;;11.00;100.00;99612.22;5072899;28;20442;-81
2022/10/31 03:20:34;;;;;;;18.93;8.57;;;;;;;11.13;100.00;99618.50;5051216;28;20197;-80
2022/10/31 03:23:06;;;;;;;12.27;8.63;;;;;;;11.03;100.00;99625.28;5050429;28;20215;-81
2022/10/31 03:25:38;;;;;;;18.23;8.63;;;;;;;11.20;100.00;99616.34;5047587;28;20193;-80
2022/10/31 03:28:09;;;;;;;16.10;8.90;;;;;;;11.36;100.00;99614.47;5044466;28;20201;-80
2022/10/31 03:30:41;;;;;;;14.60;8.30;;;;;;;11.41;100.00;99608.91;5049755;28;20189;-80
2022/10/31 03:33:14;;;;;;;17.27;9.63;;;;;;;11.35;100.00;99603.94;5047066;28;20226;-81
2022/10/31 03:35:47;;;;;;;15.03;9.33;;;;;;;11.21;100.00;99599.47;5051227;28;20264;-80
2022/10/31 03:38:16;;;;;;;15.37;8.53;;;;;;;11.15;100.00;99602.50;5053304;28;20250;-81
2022/10/31 03:40:48;;;;;;;16.53;9.07;;;;;;;11.30;100.00;99600.75;5067787;28;20273;-81
2022/10/31 03:43:23;;;;;;;78.73;10.67;;;;;;;11.07;100.00;99599.44;5070773;28;20188;-80
2022/10/31 03:45:55;;;;;;;26.87;9.00;;;;;;;11.09;100.00;99594.88;5067452;28;20204;-81
2022/10/31 03:48:26;;;;;;;12.70;7.17;;;;;;;11.02;100.00;99582.97;5049014;28;20190;-80
2022/10/31 03:51:03;;;;;;;18.17;8.30;;;;;;;11.09;100.00;99594.88;5048409;28;20208;-80
2022/10/31 03:53:36;;;;;;;13.70;7.93;;;;;;;11.05;100.00;99596.03;5043722;28;20195;-81
2022/10/31 03:56:11;;;;;;;11.20;7.07;;;;;;;11.10;100.00;99602.78;5047605;28;20204;-81
2022/10/31 03:58:46;;;;;;;25.87;8.40;;;;;;;10.60;100.00;99595.94;5050024;28;20672;-81
2022/10/31 04:01:18;;;;;;;14.83;7.50;;;;;;;10.76;100.00;99603.03;5044410;28;20227;-81
2022/10/31 04:03:49;;;;;;;26.90;8.00;;;;;;;10.64;100.00;99609.88;5050249;28;20292;-81
2022/10/31 04:06:22;;;;;;;11.90;7.70;;;;;;;10.70;100.00;99609.50;5011953;28;20200;-81
2022/10/31 04:08:58;;;;;;;16.40;8.00;;;;;;;10.55;100.00;99599.81;5070890;28;20238;-81
2022/10/31 04:11:31;;;;;;;14.20;8.93;;;;;;;10.71;100.00;99611.25;5075601;28;20203;-81
2022/10/31 04:14:03;;;;;;;14.00;8.73;;;;;;;10.68;100.00;99600.81;5071182;28;20224;-80
2022/10/31 04:16:31;;;;;;;16.97;9.80;;;;;;;10.81;100.00;99611.56;5071484;28;20193;-81
2022/10/31 04:19:01;;;;;;;17.63;9.60;;;;;;;10.81;100.00;99599.19;5068005;28;20217;-81
2022/10/31 04:21:31;;;;;;;29.50;9.73;;;;;;;10.85;100.00;99606.00;5068945;28;20200;-81
2022/10/31 04:24:00;;;;;;;27.50;9.30;;;;;;;10.94;100.00;99609.06;5071470;28;20200;-81
2022/10/31 04:26:31;;;;;;;19.37;10.00;;;;;;;10.80;100.00;99617.78;5065022;28;20700;-81
2022/10/31 04:29:03;;;;;;;27.10;10.00;;;;;;;10.77;100.00;99613.53;5074225;28;20193;-81
2022/10/31 04:31:32;;;;;;;26.00;9.80;;;;;;;10.74;100.00;99608.41;5069912;28;20211;-81
2022/10/31 04:34:01;;;;;;;29.33;9.93;;;;;;;10.68;100.00;99616.69;5075130;28;20192;-81
2022/10/31 04:36:31;;;;;;;16.60;9.20;;;;;;;10.79;100.00;99622.22;5071365;28;20194;-81
2022/10/31 04:38:59;;;;;;;32.83;9.53;;;;;;;10.70;100.00;99628.06;5072157;28;20188;-81
2022/10/31 04:41:31;;;;;;;18.67;9.87;;;;;;;10.71;100.00;99621.84;5072109;28;20250;-81
2022/10/31 04:44:00;;;;;;;13.07;8.73;;;;;;;10.81;100.00;99617.72;5070611;28;20196;-81
2022/10/31 04:46:29;;;;;;;22.80;9.17;;;;;;;10.77;100.00;99621.47;5068063;28;20199;-81
2022/10/31 04:48:57;;;;;;;24.73;9.60;;;;;;;10.66;100.00;99629.19;5069467;28;20273;-82
2022/10/31 04:51:26;;;;;;;19.97;9.60;;;;;;;10.75;100.00;99633.09;5036190;28;20235;-80
2022/10/31 04:53:57;;;;;;;30.97;11.00;;;;;;;10.48;100.00;99636.38;5068231;28;20196;-81
2022/10/31 04:56:25;;;;;;;19.73;9.67;;;;;;;10.59;100.00;99631.31;5065890;28;20254;-81
2022/10/31 04:58:53;;;;;;;54.80;11.30;;;;;;;10.55;100.00;99628.94;5070820;28;20224;-80
2022/10/31 05:01:23;;;;;;;22.00;11.07;;;;;;;10.59;100.00;99628.66;5064225;28;20196;-81
2022/10/31 05:03:51;;;;;;;20.53;10.97;;;;;;;10.60;100.00;99632.16;4999928;28;20214;-80
2022/10/31 05:06:21;;;;;;;29.23;11.43;;;;;;;10.57;100.00;99622.63;5028257;28;20194;-81
2022/10/31 05:08:50;;;;;;;29.10;11.77;;;;;;;10.43;100.00;99625.19;5022123;28;20202;-81
2022/10/31 05:11:20;;;;;;;19.90;9.13;;;;;;;10.49;100.00;99626.63;5026953;28;20239;-81
2022/10/31 05:13:49;;;;;;;20.20;9.33;;;;;;;10.46;100.00;99622.38;5029522;28;20233;-81
2022/10/31 05:16:18;;;;;;;22.57;9.27;;;;;;;10.50;100.00;99620.38;5025561;28;20244;-81
2022/10/31 05:18:46;;;;;;;37.63;10.33;;;;;;;10.44;100.00;99612.81;5022487;28;20287;-80
2022/10/31 05:21:14;;;;;;;26.20;9.80;;;;;;;10.31;100.00;99608.16;4987735;28;20222;-81
2022/10/31 05:23:49;;;;;;;14.57;9.17;;;;;;;10.22;100.00;99602.53;4985234;28;20209;-80
2022/10/31 05:26:19;;;;;;;18.80;9.90;;;;;;;10.15;100.00;99606.44;4897895;29;20232;-81
2022/10/31 05:28:47;;;;;;;30.93;9.37;;;;;;;10.17;100.00;99613.34;4965711;28;20666;-81
2022/10/31 05:31:20;;;;;;;17.63;9.33;;;;;;;10.19;100.00;99610.63;4933997;29;20205;-81
2022/10/31 05:33:51;;;;;;;32.53;9.73;;;;;;;10.25;100.00;99605.88;4886479;29;20241;-81
2022/10/31 05:36:23;;;;;;;45.77;9.90;;;;;;;10.06;100.00;99613.09;4929042;29;20657;-81
2022/10/31 05:38:55;;;;;;;29.80;9.13;;;;;;;10.06;100.00;99618.38;4931042;29;20247;-81
2022/10/31 05:41:25;;;;;;;22.37;8.90;;;;;;;10.02;100.00;99615.03;4893177;29;20214;-81
2022/10/31 05:43:53;;;;;;;31.87;10.47;;;;;;;9.93;100.00;99622.63;4893116;29;20222;-81
2022/10/31 05:46:24;;;;;;;21.90;9.63;;;;;;;10.04;100.00;99618.47;4908638;29;20289;-81
2022/10/31 05:48:53;;;;;;;14.60;9.23;;;;;;;10.19;100.00;99629.16;4916300;29;20189;-81
2022/10/31 05:51:25;;;;;;;32.33;10.30;;;;;;;9.90;100.00;99621.00;4932498;29;20272;-81
2022/10/31 05:53:54;;;;;;;21.27;9.20;;;;;;;9.94;100.00;99629.63;4929985;29;20232;-81
2022/10/31 05:56:24;;;;;;;15.03;9.17;;;;;;;9.92;100.00;99628.84;4902594;28;20236;-81
2022/10/31 05:58:53;;;;;;;13.97;8.80;;;;;;;9.93;100.00;99625.25;5005679;28;20258;-81
2022/10/31 06:01:22;;;;;;;15.23;9.53;;;;;;;9.99;100.00;99623.16;5064192;28;20274;-80
2022/10/31 06:03:51;;;;;;;18.13;10.57;;;;;;;9.95;100.00;99613.69;5067681;28;20265;-81
2022/10/31 06:06:19;;;;;;;25.27;10.83;;;;;;;9.88;100.00;99620.25;5063414;28;20246;-81
2022/10/31 06:08:48;;;;;;;15.53;9.63;;;;;;;10.02;100.00;99622.13;5064773;28;20269;-81
2022/10/31 06:11:16;;;;;;;17.67;9.50;;;;;;;10.11;100.00;99624.28;5065444;28;20208;-81
2022/10/31 06:13:47;;;;;;;38.33;10.47;;;;;;;10.08;100.00;99618.31;5028739;28;20692;-81
2022/10/31 06:16:16;;;;;;;22.27;9.87;;;;;;;10.11;100.00;99623.41;5026743;28;20201;-81
2022/10/31 06:18:46;;;;;;;24.77;9.27;;;;;;;10.07;100.00;99628.03;5027788;28;20197;-81
2022/10/31 06:21:14;;;;;;;23.77;10.33;;;;;;;9.99;100.00;99624.94;5026316;28;20221;-81
2022/10/31 06:23:46;;;;;;;11.27;8.97;;;;;;;10.00;100.00;99622.22;5028343;28;20198;-81
2022/10/31 06:26:15;;;;;;;26.23;10.40;;;;;;;9.94;100.00;99629.63;4969427;28;20211;-81
2022/10/31 06:28:43;;;;;;;15.90;9.90;;;;;;;9.98;100.00;99625.88;4970048;28;20258;-82
2022/10/31 06:31:13;;;;;;;30.20;9.80;;;;;;;9.87;100.00;99626.47;4969209;28;20222;-81
2022/10/31 06:33:42;;;;;;;24.53;10.47;;;;;;;9.89;100.00;99629.03;4986641;28;20199;-81
2022/10/31 06:36:11;;;;;;;12.73;8.97;;;;;;;9.89;100.00;99631.69;4967989;28;20271;-81
2022/10/31 06:38:40;;;;;;;25.63;9.23;;;;;;;9.88;100.00;99622.88;4968842;28;20210;-82
2022/10/31 06:41:08;;;;;;;12.97;9.33;;;;;;;10.01;100.00;99625.72;4969644;28;20263;-81
2022/10/31 06:43:37;;;;;;;10.37;8.83;;;;;;;10.01;100.00;99623.06;4973568;28;20259;-81
2022/10/31 06:46:06;;;;;;;11.83;9.07;;;;;;;10.09;100.00;99638.53;4968946;28;20208;-81
2022/10/31 06:48:36;;;;;;;13.20;9.27;;;;;;;10.06;100.00;99644.00;4972531;28;20627;-81
2022/10/31 06:51:05;;;;;;;9.73;7.97;;;;;;;10.02;100.00;99640.66;5002545;28;20198;-81
2022/10/31 06:53:33;;;;;;;10.93;8.10;;;;;;;10.16;100.00;99638.13;5012721;28;20197;-80
2022/10/31 06:56:03;;;;;;;11.00;8.60;;;;;;;10.14;100.00;99640.00;5033150;28;20206;-81
2022/10/31 06:58:31;;;;;;;11.70;8.50;;;;;;;10.28;100.00;99634.84;5034058;28;20193;-81
2022/10/31 07:01:00;;;;;;;12.40;8.87;;;;;;;10.50;100.00;99636.28;5049113;28;20258;-81
2022/10/31 07:03:29;;;;;;;13.27;9.17;;;;;;;10.51;100.00;99624.75;5073044;28;20269;-82
2022/10/31 07:05:59;;;;;;;16.83;11.10;;;;;;;10.45;100.00;99619.81;5075464;28;20219;-82
2022/10/31 07:08:27;;;;;;;17.23;13.77;;;;;;;10.45;100.00;99627.75;5074224;28;20200;-81
2022/10/31 07:10:58;;;;;;;13.90;9.63;;;;;;;10.60;100.00;99627.72;5069683;28;20242;-81
2022/10/31 07:13:26;;;;;;;11.77;9.13;;;;;;;10.70;100.00;99616.59;5075326;28;20224;-81
2022/10/31 07:16:00;;;;;;;12.03;8.83;;;;;;;10.86;100.00;99612.16;5039441;28;20222;-82
2022/10/31 07:18:29;;;;;;;10.90;8.20;;;;;;;10.93;100.00;99618.81;5072768;28;20204;-81
2022/10/31 07:21:00;;;;;;;12.50;8.53;;;;;;;10.97;100.00;99611.53;5073989;28;20239;-82
2022/10/31 07:23:28;;;;;;;12.57;8.30;;;;;;;11.03;100.00;99616.47;5078838;28;20196;-82
2022/10/31 07:25:59;;;;;;;10.80;8.70;;;;;;;11.20;100.00;99619.00;5072494;28;20295;-82
2022/10/31 07:28:28;;;;;;;9.93;8.27;;;;;;;11.08;100.00;99611.75;5075054;28;20246;-81
2022/10/31 07:30:58;;;;;;;9.63;8.40;;;;;;;11.16;100.00;99615.66;5075132;28;20200;-81
2022/10/31 07:33:27;;;;;;;9.27;8.07;;;;;;;11.23;100.00;99610.84;5070365;28;20192;-82
2022/10/31 07:35:55;;;;;;;9.93;8.00;;;;;;;11.29;100.00;99604.31;5075283;28;20192;-81
2022/10/31 07:38:25;;;;;;;11.97;9.27;;;;;;;11.40;100.00;99608.03;5072084;28;20196;-81
2022/10/31 07:40:54;;;;;;;8.57;7.10;;;;;;;11.60;100.00;99601.53;5069731;28;20262;-82
2022/10/31 07:43:22;;;;;;;11.37;7.73;;;;;;;11.67;100.00;99600.19;5067257;28;20246;-81
2022/10/31 07:45:52;;;;;;;9.40;7.87;;;;;;;11.75;100.00;99605.88;5070936;28;20701;-81
2022/10/31 07:48:20;;;;;;;7.77;6.93;;;;;;;11.74;100.00;99608.63;5071356;28;20226;-82
2022/10/31 07:50:49;;;;;;;9.20;7.80;;;;;;;11.76;100.00;99604.94;5075309;28;20193;-81
2022/10/31 07:53:17;;;;;;;9.80;8.37;;;;;;;12.04;100.00;99611.22;5073850;28;20192;-82
2022/10/31 07:55:47;;;;;;;11.97;9.00;;;;;;;12.07;100.00;99608.38;5027198;28;20198;-82
2022/10/31 07:58:17;;;;;;;11.67;8.50;;;;;;;12.16;100.00;99620.22;5028735;28;20205;-81
2022/10/31 08:00:48;;;;;;;14.57;8.87;;;;;;;12.31;100.00;99617.44;5026489;28;20232;-81
2022/10/31 08:03:18;;;;;;;10.50;9.07;;;;;;;12.24;100.00;99612.59;5022567;28;20189;-82
2022/10/31 08:05:48;;;;;;;14.27;10.20;;;;;;;12.26;100.00;99613.41;5027228;28;20253;-81
2022/10/31 08:08:16;;;;;;;12.30;9.60;;;;;;;12.41;100.00;99616.84;5028645;28;20194;-81
2022/10/31 08:10:47;;;;;;;12.47;9.53;;;;;;;12.54;100.00;99612.44;5024525;28;20248;-81
2022/10/31 08:13:15;;;;;;;11.43;9.50;;;;;;;12.60;100.00;99614.72;5028601;28;20225;-81
2022/10/31 08:15:49;;;;;;;11.90;9.40;;;;;;;12.87;100.00;99614.72;5026567;28;20193;-81
2022/10/31 08:18:18;;;;;;;12.30;9.33;;;;;;;12.99;100.00;99619.22;5026479;28;20506;-81
2022/10/31 08:20:46;;;;;;;11.47;9.23;;;;;;;13.16;100.00;99616.28;5054032;28;20223;-81
2022/10/31 08:23:16;;;;;;;13.50;9.83;;;;;;;13.24;100.00;99609.63;5070909;28;20228;-81
2022/10/31 08:25:46;;;;;;;12.30;9.17;;;;;;;13.08;100.00;99607.97;5030884;28;20196;-81
2022/10/31 08:28:16;;;;;;;12.27;9.80;;;;;;;13.09;100.00;99614.97;5024880;28;20276;-81
2022/10/31 08:30:45;;;;;;;14.60;9.50;;;;;;;13.28;100.00;99608.47;5023877;28;20601;-81
2022/10/31 08:33:16;;;;;;;17.10;10.17;;;;;;;13.48;100.00;99617.75;5029351;28;20197;-81
2022/10/31 08:35:45;;;;;;;12.87;10.53;;;;;;;13.47;100.00;99600.91;5026729;28;20204;-81
2022/10/31 08:38:14;;;;;;;13.63;10.43;;;;;;;13.70;100.00;99602.88;5029343;28;20224;-81
2022/10/31 08:40:48;;;;;;;13.17;10.47;;;;;;;13.82;100.00;99605.63;5026115;28;20248;-81
2022/10/31 08:43:19;;;;;;;11.60;10.27;;;;;;;13.98;100.00;99601.75;5031478;28;20236;-81
2022/10/31 08:45:49;;;;;;;15.00;11.33;;;;;;;14.00;100.00;99596.34;5027521;28;20204;-81
2022/10/31 08:48:18;;;;;;;13.83;11.10;;;;;;;14.15;100.00;99579.25;5027862;28;20248;-80
2022/10/31 08:50:46;;;;;;;13.33;10.60;;;;;;;14.19;100.00;99588.72;5056989;28;20200;-81
2022/10/31 08:53:17;;;;;;;13.63;11.10;;;;;;;14.40;100.00;99586.31;5066215;28;20250;-81
2022/10/31 08:55:47;;;;;;;12.13;10.57;;;;;;;14.61;100.00;99586.59;5067637;28;20234;-82
2022/10/31 08:58:19;;;;;;;13.23;10.93;;;;;;;14.62;100.00;99571.44;5066997;28;20215;-81
2022/10/31 09:00:49;;;;;;;13.90;11.13;;;;;;;14.49;100.00;99575.03;5070989;28;20196;-81
2022/10/31 09:03:20;;;;;;;12.63;11.03;;;;;;;14.83;100.00;99569.84;5069237;28;20224;-81
2022/10/31 09:05:49;;;;;;;12.37;10.60;;;;;;;14.97;100.00;99571.47;5073316;28;20195;-81
2022/10/31 09:08:18;;;;;;;14.53;10.47;;;;;;;15.12;100.00;99565.81;5073764;28;20189;-80
2022/10/31 09:10:47;;;;;;;12.67;10.60;;;;;;;15.20;100.00;99564.38;5068203;28;20199;-82
2022/10/31 09:13:19;;;;;;;12.20;9.73;;;;;;;15.18;100.00;99556.50;5068847;28;20659;-82
2022/10/31 09:15:50;;;;;;;10.47;9.33;;;;;;;15.12;100.00;99556.97;5051797;28;20246;-82
2022/10/31 09:18:20;;;;;;;11.10;9.30;;;;;;;15.34;100.00;99549.00;5039888;28;20220;-81
2022/10/31 09:20:50;;;;;;;11.50;9.50;;;;;;;15.25;100.00;99546.19;5044646;28;20236;-81
2022/10/31 09:23:21;;;;;;;10.47;9.13;;;;;;;15.57;100.00;99544.56;5044759;28;20271;-82
2022/10/31 09:25:51;;;;;;;11.37;9.27;;;;;;;15.72;100.00;99542.50;5045006;28;20647;-81
2022/10/31 09:28:23;;;;;;;10.83;9.40;;;;;;;15.94;100.00;99541.69;5044022;28;20227;-82
2022/10/31 09:30:54;;;;;;;11.90;9.93;;;;;;;16.10;100.00;99526.09;5048341;28;20193;-81
2022/10/31 09:33:22;;;;;;;12.03;9.20;;;;;;;15.86;100.00;99530.75;5054530;28;20196;-81
2022/10/31 09:35:51;;;;;;;11.17;9.07;;;;;;;16.25;100.00;99521.34;5073035;28;20185;-81
2022/10/31 09:38:23;;;;;;;10.10;8.10;;;;;;;16.27;100.00;99527.41;5071812;28;20204;-81
2022/10/31 09:41:02;;;;;;;11.73;8.87;;;;;;;16.35;100.00;99521.44;5072763;28;20204;-81
2022/10/31 09:43:44;;;;;;;11.23;8.87;;;;;;;16.46;100.00;99518.72;5068793;28;20216;-82
2022/10/31 09:46:19;;;;;;;10.83;8.33;;;;;;;16.76;100.00;99505.50;5071407;28;20246;-82
2022/10/31 09:49:03;;;;;;;11.13;8.30;;;;;;;16.75;100.00;99503.81;5035937;28;20196;-82
2022/10/31 09:51:36;;;;;;;11.00;7.63;;;;;;;17.16;100.00;99504.78;5067603;28;20200;-82
2022/10/31 09:54:12;;;;;;;9.90;8.17;;;;;;;16.85;100.00;99504.72;5071416;28;20238;-82
2022/10/31 09:56:41;;;;;;;10.90;8.57;;;;;;;17.39;100.00;99495.63;5072627;28;20249;-81
2022/10/31 09:59:25;;;;;;;10.73;8.17;;;;;;;17.34;100.00;99499.69;5064995;28;20197;-81
2022/10/31 10:01:57;;;;;;;11.20;8.60;;;;;;;17.51;100.00;99496.41;5065898;28;20208;-81
2022/10/31 10:04:40;;;;;;;11.43;7.87;;;;;;;17.51;100.00;99492.88;5069909;28;20322;-81
2022/10/31 10:07:18;;;;;;;10.03;7.47;;;;;;;17.90;100.00;99481.34;5071832;28;20200;-81
2022/10/31 10:09:46;;;;;;;9.57;7.10;;;;;;;17.88;100.00;99486.00;5071012;28;20210;-82
2022/10/31 10:12:24;;;;;;;13.43;8.43;;;;;;;17.82;100.00;99483.84;5072064;28;20290;-81
2022/10/31 10:15:08;;;;;;;10.00;7.20;;;;;;;18.01;100.00;99475.03;5066638;28;20191;-81
2022/10/31 10:17:45;;;;;;;10.77;7.97;;;;;;;18.32;100.00;99465.03;5075611;28;20257;-81
2022/10/31 10:20:29;;;;;;;7.90;7.03;;;;;;;18.34;100.00;99465.78;5065353;28;20246;-82
2022/10/31 10:23:07;;;;;;;8.67;7.07;;;;;;;18.65;100.00;99466.50;5076869;28;20272;-82
2022/10/31 10:25:40;;;;;;;9.40;6.90;;;;;;;18.65;100.00;99469.19;5074601;28;20195;-82
2022/10/31 10:28:20;;;;;;;10.03;7.33;;;;;;;18.77;100.00;99461.84;5076533;28;20220;-81
2022/10/31 10:30:54;;;;;;;12.00;6.97;;;;;;;19.12;100.00;99456.69;5072491;28;20340;-81
2022/10/31 10:33:29;;;;;;;12.13;7.73;;;;;;;19.21;100.00;99454.97;5076243;28;20249;-82
2022/10/31 10:36:03;;;;;;;10.77;8.00;;;;;;;18.97;100.00;99451.91;5075739;28;20192;-81
2022/10/31 10:38:39;;;;;;;10.70;7.70;;;;;;;19.37;100.00;99446.28;5069702;28;20200;-82
2022/10/31 10:41:14;;;;;;;11.07;7.40;;;;;;;19.44;100.00;99447.41;5071160;28;20230;-82
2022/10/31 10:43:41;;;;;;;9.87;7.67;;;;;;;19.71;100.00;99443.91;5073833;28;20216;-82
2022/10/31 10:49:19;;;;;;;10.13;6.93;;;;;;;19.72;100.00;99442.91;5077061;28;20220;-82
2022/10/31 10:51:53;;;;;;;9.20;7.27;;;;;;;19.69;100.00;99435.16;5075637;28;20204;-82
2022/10/31 10:54:48;;;;;;;13.07;7.33;;;;;;;19.85;100.00;99437.19;5075537;28;20206;-81
2022/10/31 10:57:44;;;;;;;13.07;8.07;;;;;;;20.27;100.00;99438.34;5075234;28;20196;-82
2022/10/31 11:00:19;;;;;;;11.90;7.33;;;;;;;20.30;100.00;99438.00;5070267;28;20207;-82
2022/10/31 11:02:50;;;;;;;12.20;8.23;;;;;;;20.37;100.00;99427.50;5013551;28;20217;-82
2022/10/31 11:05:24;;;;;;;11.07;7.70;;;;;;;20.31;100.00;99425.41;5012536;28;20229;-82
2022/10/31 11:07:53;;;;;;;12.03;8.13;;;;;;;20.07;100.00;99420.59;5012124;28;20296;-82
2022/10/31 11:10:22;;;;;;;11.30;8.70;;;;;;;19.91;100.00;99412.38;5010408;28;20245;-82
2022/10/31 11:13:04;;;;;;;11.77;9.53;;;;;;;20.18;100.00;99417.72;5011125;28;20257;-82
2022/10/31 11:15:37;;;;;;;13.87;9.40;;;;;;;20.01;100.00;99413.16;5027596;28;20715;-82
2022/10/31 11:18:21;;;;;;;13.90;8.60;;;;;;;20.09;100.00;99413.25;5030465;28;20210;-82
2022/10/31 11:20:55;;;;;;;11.67;8.83;;;;;;;20.37;100.00;99410.50;5065205;28;20199;-82
2022/10/31 11:23:27;;;;;;;14.23;8.90;;;;;;;20.29;100.00;99413.97;5114775;28;20214;-82
2022/10/31 11:26:00;;;;;;;12.27;9.33;;;;;;;20.17;100.00;99412.47;5107673;28;20715;-81
2022/10/31 11:28:32;;;;;;;15.57;9.23;;;;;;;19.77;100.00;99411.03;5057278;28;20188;-82
2022/10/31 11:31:02;;;;;;;13.07;9.20;;;;;;;20.00;100.00;99406.94;5110627;28;20203;-82
2022/10/31 11:33:35;;;;;;;10.43;8.37;;;;;;;19.96;100.00;99396.63;5111469;28;20207;-81
2022/10/31 11:36:15;;;;;;;11.40;8.17;;;;;;;19.98;100.00;99392.81;5111100;28;20236;-82
2022/10/31 11:38:45;;;;;;;11.00;7.73;;;;;;;20.36;100.00;99389.94;5111849;28;20216;-82
2022/10/31 11:41:17;;;;;;;11.27;8.03;;;;;;;19.44;100.00;99388.28;5107611;28;20218;-82